WetterOnline ( http://www.wetteronline.de )

Wetter aktuell Frankfurt am Main

Aktuelles Wetter: Kleiner Feldberg (802m)

6-stündlich | Neueste Meldungen
Ortszeit Temperatur Wetter
Mi, 18.07. 20:00 19.6° C wolkenlos
Mi, 18.07. 14:00 20.5° C leicht bewölkt
Mi, 18.07. 8:00 15.7° C wolkenlos
Mi, 18.07. 2:00 14.3° C fast wolkenlos
Di, 17.07. 20:00 20.5° C bedeckt
Di, 17.07. 14:00 22.4° C wolkig
Di, 17.07. 8:00 19.6° C leicht bewölkt
Di, 17.07. 2:00 17.3° C wolkig
Ortszeit Temperatur Wetter
Mi, 18.07. 22:00 16.7° C fast wolkenlos
Mi, 18.07. 21:50 16.7° C fast wolkenlos
Mi, 18.07. 21:40 16.7° C fast wolkenlos
Mi, 18.07. 21:30 17.2° C fast wolkenlos
Mi, 18.07. 21:20 17.2° C fast wolkenlos
Mi, 18.07. 21:10 17.6° C leicht bewölkt
Mi, 18.07. 21:00 18.2° C wolkenlos
Mi, 18.07. 20:30 19.1° C wolkenlos
Mi, 18.07. 20:00 19.6° C wolkenlos
Mi, 18.07. 19:30 20.5° C wolkenlos
Mi, 18.07. 19:00 21.3° C wolkenlos
Ortszeit Relative Feuchte Sichtweite
Mi, 18.07. 20:00 43% 70 km
Mi, 18.07. 14:00 41% 28 km
Mi, 18.07. 8:00 59% 55 km
Mi, 18.07. 2:00 76% 70 km
Di, 17.07. 20:00 47% 70 km
Di, 17.07. 14:00 38% 70 km
Di, 17.07. 8:00 51% 70 km
Di, 17.07. 2:00 60% 70 km
Ortszeit Relative Feuchte Sichtweite
Mi, 18.07. 22:00 53% 70 km
Mi, 18.07. 21:50 53% -
Mi, 18.07. 21:40 53% -
Mi, 18.07. 21:30 51% 70 km
Mi, 18.07. 21:20 51% -
Mi, 18.07. 21:10 50% -
Mi, 18.07. 21:00 48% 70 km
Mi, 18.07. 20:30 45% 70 km
Mi, 18.07. 20:00 43% 70 km
Mi, 18.07. 19:30 40% 50 km
Mi, 18.07. 19:00 38% 40 km
Ortszeit Niederschlagsmenge Niederschlagsart
Mi, 18.07. 20:00 0.0 l/m2 in 12 Std. -
Mi, 18.07. 14:00 0.0 l/m2 in 6 Std. -
Mi, 18.07. 8:00 0.0 l/m2 in 12 Std. -
Mi, 18.07. 2:00 0.0 l/m2 in 6 Std. -
Di, 17.07. 20:00 0.0 l/m2 in 12 Std. -
Di, 17.07. 14:00 0.0 l/m2 in 6 Std. -
Di, 17.07. 8:00 0.1 l/m2 in 12 Std. -
Di, 17.07. 2:00 0.1 l/m2 in 6 Std. Regen
Ortszeit Niederschlagsmenge Niederschlagsart
Mi, 18.07. 22:00 0.0 l/m2 in 1 Std. -
Mi, 18.07. 21:50 keine Meldung -
Mi, 18.07. 21:40 keine Meldung -
Mi, 18.07. 21:30 0.0 l/m2 in 1 Std. -
Mi, 18.07. 21:20 keine Meldung -
Mi, 18.07. 21:10 keine Meldung -
Mi, 18.07. 21:00 0.0 l/m2 in 1 Std. -
Mi, 18.07. 20:30 0.0 l/m2 in 1 Std. -
Mi, 18.07. 20:00 0.0 l/m2 in 1 Std. -
Mi, 18.07. 19:30 0.0 l/m2 in 1 Std. -
Mi, 18.07. 19:00 0.0 l/m2 in 1 Std. -
Ortszeit Stärke Spitze Richtung
km/h Bft. km/h Grad Sektor
Mi, 18.07. 20:00 11 2 29 310° NW
Mi, 18.07. 14:00 11 2 29 300° NW
Mi, 18.07. 8:00 9 2 30 340° N
Mi, 18.07. 2:00 14 3 32 320° NW
Di, 17.07. 20:00 9 2 35 300° NW
Di, 17.07. 14:00 11 2 25 290° W
Di, 17.07. 8:00 7 2 18 310° NW
Di, 17.07. 2:00 11 2 18 200° S
Ortszeit Stärke Spitze Richtung
km/h Bft. km/h Grad Sektor
Mi, 18.07. 22:00 11 2 22 330° NW
Mi, 18.07. 21:50 11 2 - 330° NW
Mi, 18.07. 21:40 9 2 - 320° NW
Mi, 18.07. 21:30 9 2 17 320° NW
Mi, 18.07. 21:20 9 2 - 320° NW
Mi, 18.07. 21:10 11 2 - 320° NW
Mi, 18.07. 21:00 11 2 22 310° NW
Mi, 18.07. 20:30 11 2 22 300° NW
Mi, 18.07. 20:00 11 2 22 310° NW
Mi, 18.07. 19:30 11 2 22 320° NW
Mi, 18.07. 19:00 11 2 25 320° NW
Ortszeit Untergrenze Bedeckung Gattung
total tief tief mittel hoch
Mi, 18.07. 20:00 - 0/8 0/8 - - -
Mi, 18.07. 14:00 9000 m 7/8 0/8 - - -
Mi, 18.07. 8:00 - 0/8 0/8 - - -
Mi, 18.07. 2:00 1800 m 1/8 1/8 - - -
Di, 17.07. 20:00 3300 m 8/8 8/8 - - -
Di, 17.07. 14:00 1800 m 7/8 2/8 - - -
Di, 17.07. 8:00 9000 m 3/8 0/8 - - -
Di, 17.07. 2:00 9000 m 8/8 0/8 - - -
Ortszeit Bedeckungsgrad in Achtel und Wolkenuntergrenze
Mi, 18.07. 22:00 1(2700m)
Mi, 18.07. 21:50 1(2700m)
Mi, 18.07. 21:40 1(2700m)
Mi, 18.07. 21:30 1(2400m)
Mi, 18.07. 21:20 1(2400m)
Mi, 18.07. 21:10 2(2400m)
Mi, 18.07. 21:00 1(2400m)
Mi, 18.07. 20:30 keine Wolken
Mi, 18.07. 20:00 keine Wolken
Mi, 18.07. 19:30 keine Wolken
Mi, 18.07. 19:00 keine Wolken
Ortszeit Stationsdruck (hPa) Tendenz (hPa in 3 Std.)
Mi, 18.07. 20:00 924 - 0,4
Mi, 18.07. 14:00 925 - 0,1
Mi, 18.07. 8:00 924 + 0,6
Mi, 18.07. 2:00 924 + 0,4
Di, 17.07. 20:00 922 0,0
Di, 17.07. 14:00 922 + 0,1
Di, 17.07. 8:00 921 + 0,7
Di, 17.07. 2:00 921 + 0,3
Ortszeit Stationsdruck (hPa) Tendenz (hPa in 3 Std.)
Mi, 18.07. 22:00 924 + 0,2
Mi, 18.07. 21:50 924 keine Meldung
Mi, 18.07. 21:40 924 keine Meldung
Mi, 18.07. 21:30 924 0,0
Mi, 18.07. 21:20 924 keine Meldung
Mi, 18.07. 21:10 924 keine Meldung
Mi, 18.07. 21:00 924 - 0,1
Mi, 18.07. 20:30 924 - 0,5
Mi, 18.07. 20:00 924 - 0,4
Mi, 18.07. 19:30 924 - 0,4
Mi, 18.07. 19:00 924 - 0,4
Ortszeit Schneehöhe (cm)
Mi, 18.07. 20:00 -
Mi, 18.07. 14:00 -
Mi, 18.07. 8:00 -
Mi, 18.07. 2:00 -
Di, 17.07. 20:00 -
Di, 17.07. 14:00 -
Di, 17.07. 8:00 -
Di, 17.07. 2:00 -
Ortszeit Schneehöhe (cm)
Mi, 18.07. 22:00 -
Mi, 18.07. 21:50 -
Mi, 18.07. 21:40 -
Mi, 18.07. 21:30 -
Mi, 18.07. 21:20 -
Mi, 18.07. 21:10 -
Mi, 18.07. 21:00 -
Mi, 18.07. 20:30 -
Mi, 18.07. 20:00 -
Mi, 18.07. 19:30 -
Mi, 18.07. 19:00 -
Link zu dieser Seite / Seite empfehlen

Das Wetter in ...